KLPC/LPC METAR and TAF weather

Enter ICAO airport designator
Station Type Date Time Source
KLPC METAR 2019/12/07 17:29 UTC NOAA

KLPC 071729Z AUTO 15009KT 10SM OVC013 17/14 A3012 RMK AO2


Station Type Date Time Source
KLPC Decoded METAR 2019/12/07 17:29 UTC NOAA

Lompoc, Lompoc Airport, CA, United States (KLPC) 34-40N 120-28W
Dec 07, 2019 - 12:29 PM EST / 2019.12.07 1729 UTC
Wind: from the SSE (150 degrees) at 10 MPH (9 KT):0
Visibility: 10 mile(s):0
Sky conditions: overcast
Temperature: 62 F (17 C)
Dew Point: 57 F (14 C)
Relative Humidity: 82%
Pressure (altimeter): 30.12 in. Hg (1019 hPa)
ob: KLPC 071729Z AUTO 15009KT 10SM OVC013 17/14 A3012 RMK AO2
cycle: 17

Station Type Date Time Source
KLPC TAF UTC NOAA

Error!

Example: see airport list